Nearby Nevada METAR Reports

Sorted by Distance from Carson Valley - Minden, Nevada

 

KMEV - Minden, Nevada, USA
Distance from station: SSW 3mi, 5km
Updated: Tue, 06-Dec-2022 5:35pm MST
Clear
Clear
 Wind from W
Wind: W 6 mph , 9 km/h
Temperature: 32°F , 0°C
Wind Chill: 26°F , -3°C
Dew Point: 23°F , -5°C
Humidity: 69%
Barometer: 30.03 inHg , 1016.9 hPa
Clouds: Clear
Visibility: 10 miles , 16 km
2022/12/07 00:35 KMEV 070035Z AUTO 27005KT 10SM CLR 00/M05 A3003 RMK AO2
KCXP - Carson City, Nevada, USA
Distance from station: N 10mi, 16km
Updated: Tue, 06-Dec-2022 5:35pm MST
Clear
Clear
 Wind from NE
Wind: NE 10 mph , 17 km/h
Temperature: 39°F , 4°C
Wind Chill: 32°F , 0°C
Dew Point: 21°F , -6°C
Humidity: 48%
Barometer: 30.05 inHg , 1017.6 hPa
Clouds: Clear
Visibility: 10 miles , 16 km
2022/12/07 00:35 KCXP 070035Z AUTO 05009KT 10SM CLR 04/M06 A3005 RMK AO2
 
KTVL - South Lake Tahoe, California, USA
Distance from station: WSW 18mi, 29km
Updated: Tue, 06-Dec-2022 4:53pm MST
Clear
Clear
 Wind from calm
Wind: Calm
Temperature: 25°F , -4°C
Dew Point: 21°F , -6°C
Humidity: 86%
Barometer: 29.99 inHg , 1015.6 hPa
Clouds: Clear
Visibility: 10 miles , 16 km
2022/12/06 23:53 KTVL 062353Z AUTO 00000KT 10SM CLR M04/M06 A2999 RMK AO2 SLP193 T10391061 10011 21072 53002
KTRK - Truckee Tahoe, California, USA
Distance from station: NW 29mi, 46km
Updated: Tue, 06-Dec-2022 4:45pm MST
Few Clouds
Few Clouds
 Wind from calm
Wind: Calm
Temperature: 28°F , -2°C
Dew Point: 23°F , -5°C
Humidity: 80%
Barometer: 30.02 inHg , 1016.6 hPa
Clouds: Few Clouds
Visibility: 10 miles , 16 km
Cloud details: Few Clouds 3000 ft
2022/12/06 23:45 KTRK 062345Z 00000KT 10SM FEW030 M02/M05 A3002
 
KRNO - Reno, Nevada, USA
Distance from station: N 32mi, 51km
Updated: Tue, 06-Dec-2022 4:55pm MST
Partly cloudy
Partly cloudy
 Wind from E
Wind: E 5 mph , 7 km/h
Temperature: 43°F , 6°C
Wind Chill: 40°F , 4°C
Dew Point: 23°F , -5°C
Humidity: 46%
Barometer: 30.03 inHg , 1016.9 hPa
Clouds: Partly cloudy
Visibility: 10 miles , 16 km
Cloud details: Partly cloudy 6000 ft
Partly cloudy 20000 ft
2022/12/06 23:55 KRNO 062355Z 09004KT 10SM SCT060 SCT200 06/M05 A3003 RMK AO2 SLP170 T00611050 10078 20022 53001
KRTS - Reno/Stead, Nevada, USA
Distance from station: NNW 44mi, 71km
Updated: Tue, 06-Dec-2022 5:35pm MST
Overcast
Overcast
 Wind from calm
Wind: Calm
Temperature: 36°F , 2°C
Dew Point: 27°F , -3°C
Humidity: 70%
Barometer: 30.05 inHg , 1017.6 hPa
Clouds: Overcast
Visibility: 10 miles , 16 km
Cloud details: Mostly cloudy 4600 ft
Overcast 5500 ft
2022/12/07 00:35 KRTS 070035Z AUTO 00000KT 10SM BKN046 OVC055 02/M03 A3005 RMK AO2
 
KBAN - Bridgeport(Mcmwt, California, USA
Distance from station: SSE 49mi, 79km
Updated: Tue, 06-Dec-2022 4:52pm MST
Partly cloudy
Partly cloudy
 Wind from varies
Wind: varies 3 mph , 6 km/h
Temperature: 34°F , 1°C
Dew Point: 12°F , -11°C
Humidity: 41%
Barometer: 29.95 inHg , 1014.2 hPa
Clouds: Partly cloudy
Visibility: 10 miles , 16 km
Cloud details: Partly cloudy 12000 ft
2022/12/06 23:52 KBAN 062352Z AUTO VRB03KT 10SM SCT120 01/M11 A2995 RMK AO2 SLP175 T00061111 10017 21067 53000 $
KBLU - Emigrant Gap, California, USA
Distance from station: WNW 55mi, 89km
Updated: Tue, 06-Dec-2022 4:52pm MST
Clear
Clear
 Wind from calm
Wind: Calm
Temperature: 37°F , 3°C
Dew Point: 30°F , -1°C
Humidity: 75%
Barometer: 30.03 inHg , 1016.9 hPa
Clouds: Clear
Visibility: 10 miles , 16 km
2022/12/06 23:52 KBLU 062352Z AUTO 00000KT 10SM CLR 03/M01 A3003 RMK AO2 SLP174 T00281011 10033 20000 53001
 
KPVF - Placerville, California, USA
Distance from station: WSW 60mi, 96km
Updated: Tue, 06-Dec-2022 5:35pm MST
Mostly cloudy
Mostly cloudy
 Wind from NNW
Wind: NNW 3 mph , 6 km/h
Temperature: 43°F , 6°C
Dew Point: 41°F , 5°C
Humidity: 93%
Barometer: 30.06 inHg , 1017.9 hPa
Clouds: Mostly cloudy
Visibility: 10 miles , 16 km
Cloud details: Mostly cloudy 500 ft
2022/12/07 00:35 KPVF 070035Z AUTO 34003KT 10SM BKN005 06/05 A3006 RMK AO1
KNFL - Fallon Nas, Nevada, USA
Distance from station: ENE 61mi, 97km
Updated: Tue, 06-Dec-2022 4:56pm MST
Partly cloudy
Partly cloudy
 Wind from NNE
Wind: NNE 6 mph , 9 km/h
Temperature: 45°F , 7°C
Wind Chill: 42°F , 6°C
Dew Point: 23°F , -5°C
Humidity: 42%
Barometer: 30.04 inHg , 1017.3 hPa
Clouds: Partly cloudy
Visibility: 10 miles , 16 km
Cloud details: Few Clouds 5000 ft
Few Clouds 15000 ft
Partly cloudy 20000 ft
2022/12/06 23:56 KNFL 062356Z 02005KT 10SM FEW050 FEW150 SCT200 07/M05 A3004 RMK AO2 SLP140 T00671050 10078 20022 53001
 
KHTH - Hawthorne, Nevada, USA
Distance from station: ESE 68mi, 109km
Updated: Wed, 12-Oct-2022 2:25pm MDT
NOT Current
Clear
Clear
 Wind from N
Wind: N 8 mph , 13 km/h
Temperature: 73°F , 23°C
Dew Point: 25°F , -4°C
Humidity: 16%
Barometer: 30.28 inHg , 1025.4 hPa
Clouds: Clear
Visibility: 10 miles , 16 km
2022/10/12 20:25 KHTH 122025Z AUTO 35007KT 10SM CLR 23/M04 A3028 RMK A01
KGOO - Grass Valley, California, USA
Distance from station: W 70mi, 112km
Updated: Tue, 06-Dec-2022 5:35pm MST
Clear
Clear
 Wind from NW
Wind: NW 5 mph , 7 km/h
Temperature: 43°F , 6°C
Wind Chill: 40°F , 4°C
Dew Point: 39°F , 4°C
Humidity: 87%
Barometer: 30.03 inHg , 1016.9 hPa
Clouds: Clear
Visibility: 10 miles , 16 km
2022/12/07 00:35 KGOO 070035Z AUTO 32004KT 10SM CLR 06/04 A3003 RMK A01
 
KAUN - Auburn Muni, California, USA
Distance from station: W 73mi, 118km
Updated: Tue, 06-Dec-2022 5:35pm MST
Few Clouds
Few Clouds
 Wind from W
Wind: W 5 mph , 7 km/h
Temperature: 48°F , 9°C
Wind Chill: 46°F , 8°C
Dew Point: 43°F , 6°C
Humidity: 82%
Barometer: 30.06 inHg , 1017.9 hPa
Clouds: Few Clouds
Visibility: 10 miles , 16 km
Cloud details: Few Clouds 9000 ft
2022/12/07 00:35 KAUN 070035Z AUTO 28004KT 10SM FEW090 09/06 A3006 RMK A01
KO22 - Columbia, California, USA
Distance from station: SSW 79mi, 127km
Updated: Tue, 06-Dec-2022 5:35pm MST
Clear
Clear
 Wind from W
Wind: W 3 mph , 6 km/h
Temperature: 48°F , 9°C
Dew Point: 39°F , 4°C
Humidity: 71%
Barometer: 30.03 inHg , 1016.9 hPa
Clouds: Clear
Visibility: 10 miles , 16 km
2022/12/07 00:35 KO22 070035Z AUTO 26003KT 10SM CLR 09/04 A3003 RMK A01
 
KLHM - Lincoln, California, USA
Distance from station: W 88mi, 141km
Updated: Tue, 06-Dec-2022 5:35pm MST
Clear
Clear
 Wind from NNW
Wind: NNW 3 mph , 6 km/h
Temperature: 52°F , 11°C
Dew Point: 41°F , 5°C
Humidity: 67%
Barometer: 30.06 inHg , 1017.9 hPa
Clouds: Clear
Visibility: 10 miles , 16 km
2022/12/07 00:35 KLHM 070035Z AUTO 33003KT 10SM CLR 11/05 A3006 RMK AO1
KBAB - Beale Afb/Marysv, California, USA
Distance from station: W 91mi, 147km
Updated: Tue, 06-Dec-2022 4:55pm MST
Clear
Clear
 Wind from N
Wind: N 9 mph , 15 km/h
Temperature: 55°F , 13°C
Dew Point: 43°F , 6°C
Humidity: 63%
Barometer: 30.05 inHg , 1017.6 hPa
Clouds: Clear
Visibility: 10 miles , 16 km
2022/12/06 23:55 KBAB 062355Z AUTO 35008KT 10SM CLR 13/06 A3005 RMK AO2 SLP179 T01320056 10142 20090 55003 $
 
KMHR - Mather Field, California, USA
Distance from station: WSW 91mi, 147km
Updated: Tue, 06-Dec-2022 5:35pm MST
Mostly cloudy
Mostly cloudy
 Wind from NNW
Wind: NNW 12 mph , 19 km/h
Temperature: 55°F , 13°C
Dew Point: 45°F , 7°C
Humidity: 67%
Barometer: 30.04 inHg , 1017.3 hPa
Clouds: Mostly cloudy
Visibility: 10 miles , 16 km
Cloud details: Mostly cloudy 6000 ft
Mostly cloudy 7000 ft
Mostly cloudy 8000 ft
2022/12/07 00:35 KMHR 070035Z AUTO 34010KT 10SM BKN060 BKN070 BKN080 13/07 A3004 RMK A01
KLOL - Lovelock, Nevada, USA
Distance from station: NE 94mi, 151km
Updated: Tue, 06-Dec-2022 4:53pm MST
Clear
Clear
 Wind from NNE
Wind: NNE 6 mph , 9 km/h
Temperature: 43°F , 6°C
Wind Chill: 39°F , 4°C
Dew Point: 27°F , -3°C
Humidity: 53%
Barometer: 30.05 inHg , 1017.6 hPa
Clouds: Clear
Visibility: 10 miles , 16 km
2022/12/06 23:53 KLOL 062353Z AUTO 02005KT 10SM CLR 06/M03 A3005 RMK AO2 SLP195 T00611033 10072 20006 55000
 
KMCC - Mcclellan Afb, California, USA
Distance from station: WSW 94mi, 151km
Updated: Tue, 06-Dec-2022 5:35pm MST
Overcast
Overcast
 Wind from NNW
Wind: NNW 5 mph , 7 km/h
Temperature: 55°F , 13°C
Dew Point: 45°F , 7°C
Humidity: 67%
Barometer: 30.07 inHg , 1018.3 hPa
Clouds: Overcast
Visibility: 10 miles , 16 km
Cloud details: Overcast 9500 ft
2022/12/07 00:35 KMCC 070035Z AUTO 34004KT 10SM OVC095 13/07 A3007 RMK AO2
KMYV - Marysville, California, USA
Distance from station: W 99mi, 159km
Updated: Fri, 18-Nov-2022 9:53pm MST
NOT Current
Clear
Clear
 Wind from NNW
Wind: NNW 13 mph , 20 km/h
Temperature: 52°F , 11°C
Dew Point: 25°F , -4°C
Humidity: 35%
Barometer: 30.10 inHg , 1019.3 hPa
Clouds: Clear
Visibility: 10 miles , 16 km
2022/11/19 04:53 KMYV 190453Z AUTO 34011KT 10SM CLR 11/M04 A3010 RMK AO2 SLP195 T01061039 $
 
KSVE - Susanville Muni, California, USA
Distance from station: NNW 102mi, 164km
Updated: Tue, 06-Dec-2022 5:35pm MST
Clear
Clear
 Wind from W
Wind: W 3 mph , 6 km/h
Temperature: 27°F , -3°C
Dew Point: 27°F , -3°C
Humidity: 100%
Barometer: 30.08 inHg , 1018.6 hPa
Clouds: Clear
Visibility: 10 miles , 16 km
2022/12/07 00:35 KSVE 070035Z AUTO 26003KT 10SM CLR M03/M03 A3008 RMK AO2
KSAC - Sacramento, California, USA
Distance from station: WSW 103mi, 165km
Updated: Tue, 06-Dec-2022 4:53pm MST
Clear
Clear
 Wind from N
Wind: N 6 mph , 9 km/h
Temperature: 57°F , 14°C
Dew Point: 43°F , 6°C
Humidity: 59%
Barometer: 30.06 inHg , 1017.9 hPa
Clouds: Clear
2022/12/06 23:53 KSAC 062353Z 01005KT CLR 14/06 A3006 RMK AO2 SLP180 T01440061 10144 20083 56002 $
 
KSMF - Sacramento/Metro, California, USA
Distance from station: WSW 104mi, 167km
Updated: Tue, 06-Dec-2022 4:53pm MST
Few Clouds
Few Clouds
 Wind from N
Wind: N 7 mph , 11 km/h
Temperature: 57°F , 14°C
Dew Point: 45°F , 7°C
Humidity: 63%
Barometer: 30.06 inHg , 1017.9 hPa
Clouds: Few Clouds
Visibility: 10 miles , 16 km
Cloud details: Few Clouds 10000 ft
Few Clouds 25000 ft
2022/12/06 23:53 KSMF 062353Z 35006KT 10SM FEW100 FEW250 14/07 A3006 RMK AO2 SLP179 T01440067 10150 20100 55002
KOVE - Oroville, California, USA
Distance from station: WNW 106mi, 171km
Updated: Tue, 06-Dec-2022 4:53pm MST
Clear
Clear
 Wind from NW
Wind: NW 5 mph , 7 km/h
Temperature: 57°F , 14°C
Dew Point: 43°F , 6°C
Humidity: 59%
Barometer: 30.07 inHg , 1018.3 hPa
Clouds: Clear
Visibility: 10 miles , 16 km
2022/12/06 23:53 KOVE 062353Z AUTO 32004KT 10SM CLR 14/06 A3007 RMK AO2 SLP186 T01440056 10144 20089 56004
 
KMMH - Mammoth/June Lak, California, USA
Distance from station: SSE 110mi, 177km
Updated: Tue, 06-Dec-2022 5:38pm MST
Overcast
Overcast
 Wind from calm
Wind: Calm
Temperature: 23°F , -5°C
Dew Point: 14°F , -10°C
Humidity: 68%
Barometer: 29.99 inHg , 1015.6 hPa
Clouds: Overcast
Visibility: 10 miles , 16 km
Cloud details: Overcast 4900 ft
2022/12/07 00:38 KMMH 070038Z AUTO 00000KT 10SM OVC049 M05/M10 A2999 RMK AO2
KSCK - Stockton, California, USA
Distance from station: SW 114mi, 183km
Updated: Tue, 06-Dec-2022 4:55pm MST
Few Clouds
Few Clouds
 Wind from W
Wind: W 10 mph , 17 km/h
Temperature: 55°F , 13°C
Dew Point: 46°F , 8°C
Humidity: 72%
Barometer: 30.05 inHg , 1017.6 hPa
Clouds: Few Clouds
Visibility: 10 miles , 16 km
Cloud details: Few Clouds 2600 ft
2022/12/06 23:55 KSCK 062355Z 26009KT 10SM FEW026 13/08 A3005 RMK AO2 SLP175 60000 T01280083 10139 20100 55002
 
KEDU - Davis, California, USA
Distance from station: WSW 116mi, 187km
Updated: Tue, 06-Dec-2022 5:35pm MST
Clear
Clear
 Wind from N
Wind: N 6 mph , 9 km/h
Temperature: 54°F , 12°C
Dew Point: 45°F , 7°C
Humidity: 72%
Barometer: 30.08 inHg , 1018.6 hPa
Clouds: Clear
Visibility: 10 miles , 16 km
2022/12/07 00:35 KEDU 070035Z AUTO 01005KT 10SM CLR 12/07 A3008 RMK AO1
KMOD - Modesto, California, USA
Distance from station: SW 119mi, 191km
Updated: Tue, 06-Dec-2022 4:53pm MST
Clear
Clear
 Wind from WNW
Wind: WNW 12 mph , 19 km/h
Temperature: 54°F , 12°C
Dew Point: 46°F , 8°C
Humidity: 77%
Barometer: 30.04 inHg , 1017.3 hPa
Clouds: Clear
Visibility: 10 miles , 16 km
2022/12/06 23:53 KMOD 062353Z AUTO 29010KT 10SM CLR 12/08 A3004 RMK AO2 SLP173 60003 T01170078 10128 20089 55004
 
KMER - Merced/Castle Af, California, USA
Distance from station: SSW 123mi, 198km
Updated: Tue, 06-Dec-2022 4:53pm MST
Partly cloudy
Partly cloudy
 Wind from NNW
Wind: NNW 5 mph , 7 km/h
Temperature: 57°F , 14°C
Dew Point: 45°F , 7°C
Humidity: 63%
Barometer: 30.04 inHg , 1017.3 hPa
Clouds: Partly cloudy
Visibility: 10 miles , 16 km
Cloud details: Partly cloudy 9000 ft
2022/12/06 23:53 KMER 062353Z 33004KT 10SM SCT090 14/07 A3004
KCIC - Chico Municipal, California, USA
Distance from station: WNW 124mi, 199km
Updated: Tue, 06-Dec-2022 4:53pm MST
Clear
Clear
 Wind from NW
Wind: NW 10 mph , 17 km/h
Temperature: 55°F , 13°C
Dew Point: 41°F , 5°C
Humidity: 59%
Barometer: 30.08 inHg , 1018.6 hPa
Clouds: Clear
Visibility: 10 miles , 16 km
2022/12/06 23:53 KCIC 062353Z 31009KT 10SM CLR 13/05 A3008
 
KMCE - Merced, California, USA
Distance from station: SSW 128mi, 207km
Updated: Tue, 06-Dec-2022 4:53pm MST
Few Clouds
Few Clouds
 Wind from N
Wind: N 8 mph , 13 km/h
Temperature: 57°F , 14°C
Dew Point: 43°F , 6°C
Humidity: 59%
Barometer: 30.03 inHg , 1016.9 hPa
Clouds: Few Clouds
Visibility: 10 miles , 16 km
Cloud details: Few Clouds 4000 ft
2022/12/06 23:53 KMCE 062353Z AUTO 35007KT 10SM FEW040 14/06 A3003 RMK AO2 SLP168 T01390061 10206 20106 55003
KVCB - Vacaville, California, USA
Distance from station: WSW 128mi, 207km
Updated: Tue, 06-Dec-2022 4:53pm MST
Clear
Clear
 Wind from N
Wind: N 8 mph , 13 km/h
Temperature: 55°F , 13°C
Dew Point: 43°F , 6°C
Humidity: 63%
Barometer: 30.08 inHg , 1018.6 hPa
Clouds: Clear
Visibility: 10 miles , 16 km
2022/12/06 23:53 KVCB 062353Z AUTO 01007KT 10SM CLR 13/06 A3008 RMK AO2 SLP184 T01330056 10139 20094 56003
 
KSUU - Travis Afb/Fairf, California, USA
Distance from station: WSW 130mi, 209km
Updated: Tue, 06-Dec-2022 4:55pm MST
Few Clouds
Few Clouds
 Wind from NNE
Wind: NNE 9 mph , 15 km/h
Temperature: 57°F , 14°C
Dew Point: 43°F , 6°C
Humidity: 59%
Barometer: 30.05 inHg , 1017.6 hPa
Clouds: Few Clouds
Visibility: 10 miles , 16 km
Cloud details: Few Clouds 5000 ft
2022/12/06 23:55 KSUU 062355Z AUTO 02008KT 10SM FEW050 14/06 A3005 RMK AO2 SLP183 T01350061 10141 20095 58003 $
KBIH - Bishop, California, USA
Distance from station: SE 137mi, 221km
Updated: Tue, 06-Dec-2022 4:56pm MST
Few Clouds
Few Clouds
 Wind from calm
Wind: Calm
Temperature: 48°F , 9°C
Dew Point: 21°F , -6°C
Humidity: 34%
Barometer: 29.95 inHg , 1014.2 hPa
Clouds: Few Clouds
Visibility: 10 miles , 16 km
Cloud details: Few Clouds 12000 ft
2022/12/06 23:56 KBIH 062356Z AUTO 00000KT 10SM FEW120 09/M06 A2995 RMK AO2 SLP146 T00941056 10106 20050 55001
 
KMAE - Madera, California, USA
Distance from station: S 144mi, 231km
Updated: Tue, 06-Dec-2022 4:53pm MST
Mostly cloudy
Mostly cloudy
 Wind from calm
Wind: Calm
Temperature: 57°F , 14°C
Dew Point: 45°F , 7°C
Humidity: 63%
Barometer: 30.03 inHg , 1016.9 hPa
Clouds: Mostly cloudy
Visibility: 10 miles , 16 km
Cloud details: Mostly cloudy 3700 ft
2022/12/06 23:53 KMAE 062353Z AUTO 00000KT 10SM BKN037 14/07 A3003 RMK AO2 SLP169 T01440072 55005
KCCR - Concord, California, USA
Distance from station: WSW 145mi, 233km
Updated: Tue, 06-Dec-2022 4:53pm MST
Partly cloudy
Partly cloudy
 Wind from NE
Wind: NE 5 mph , 7 km/h
Temperature: 55°F , 13°C
Dew Point: 43°F , 6°C
Humidity: 63%
Barometer: 30.07 inHg , 1018.3 hPa
Clouds: Partly cloudy
Visibility: 10 miles , 16 km
Cloud details: Partly cloudy 3000 ft
2022/12/06 23:53 KCCR 062353Z 04004KT 10SM SCT030 13/06 A3007 RMK AO2 SLP167 T01280061 10133 20100 56003
 
KLVK - Livermore, California, USA
Distance from station: SW 146mi, 236km
Updated: Tue, 06-Dec-2022 5:13pm MST
Partly cloudy
Partly cloudy
 Wind from E
Wind: E 6 mph , 9 km/h
Temperature: 52°F , 11°C
Dew Point: 43°F , 6°C
Humidity: 72%
Barometer: 30.05 inHg , 1017.6 hPa
Clouds: Partly cloudy
Visibility: 10 miles , 16 km
Cloud details: Partly cloudy 2900 ft
2022/12/07 00:13 KLVK 070013Z 08005KT 10SM SCT029 11/06 A3005 RMK AO2 T01060061
KAPC - Napa, California, USA
Distance from station: WSW 150mi, 241km
Updated: Tue, 06-Dec-2022 4:54pm MST
Few Clouds
Few Clouds
 Wind from NNE
Wind: NNE 3 mph , 6 km/h
Temperature: 57°F , 14°C
Dew Point: 43°F , 6°C
Humidity: 59%
Barometer: 30.06 inHg , 1017.9 hPa
Clouds: Few Clouds
Visibility: 10 miles , 16 km
Cloud details: Few Clouds 4000 ft
2022/12/06 23:54 KAPC 062354Z 02003KT 10SM FEW040 14/06 A3006 RMK AO2 SLP169 T01440061 10144 20117 58003
 
KRBL - Red Bluff, California, USA
Distance from station: WNW 155mi, 249km
Updated: Tue, 06-Dec-2022 2:54pm MST
NOT Current
Clear
Clear
 Wind from NNW
Wind: NNW 7 mph , 11 km/h
Temperature: 57°F , 14°C
Dew Point: 39°F , 4°C
Humidity: 51%
Barometer: 30.09 inHg , 1019 hPa
Clouds: Clear
Visibility: 10 miles , 16 km
2022/12/06 21:54 KRBL 062154Z AUTO 33006KT 10SM CLR 14/04 A3009 RMK AO2 SLP187 T01390044
KFAT - Fresno, California, USA
Distance from station: S 156mi, 251km
Updated: Tue, 06-Dec-2022 4:53pm MST
Mostly cloudy
Mostly cloudy
 Wind from calm
Wind: Calm
Temperature: 57°F , 14°C
Dew Point: 43°F , 6°C
Humidity: 59%
Barometer: 30.03 inHg , 1016.9 hPa
Clouds: Mostly cloudy
Visibility: 10 miles , 16 km
Cloud details: Partly cloudy 8000 ft
Mostly cloudy 13000 ft
Mostly cloudy 20000 ft
2022/12/06 23:53 KFAT 062353Z 00000KT 10SM SCT080 BKN130 BKN200 14/06 A3003 RMK AO2 SLP168 TCU DSNT E-S W MTNS OBSC HZ DSNT N-E-S T01440061 10150 20117 55005
 
KTPH - Tonopah, Nevada, USA
Distance from station: ESE 158mi, 254km
Updated: Tue, 06-Dec-2022 4:56pm MST
Clear
Clear
 Wind from calm
Wind: Calm
Temperature: 39°F , 4°C
Dew Point: 25°F , -4°C
Humidity: 56%
Barometer: 30.00 inHg , 1015.9 hPa
Clouds: Clear
Visibility: 10 miles , 16 km
2022/12/06 23:56 KTPH 062356Z AUTO 00000KT 10SM CLR 04/M04 A3000 RMK AO2 SLP164 T00441039 10067 20022 53002
KFCH - Fresno Chandler, California, USA
Distance from station: S 161mi, 258km
Updated: Sun, 06-Mar-2022 3:40pm MST
NOT Current
Partly cloudy
Partly cloudy
 Wind from calm
Wind: Calm
Temperature: 57°F , 14°C
Dew Point: 36°F , 2°C
Humidity: 44%
Barometer: 30.26 inHg , 1024.7 hPa
Clouds: Partly cloudy
Visibility: 10 miles , 16 km
Cloud details: Partly cloudy 5000 ft
2022/03/06 22:40 KFCH 062240Z AUTO 00000KT 10SM SCT050 14/02 A3026 RMK A01
 
KHWD - Hayward, California, USA
Distance from station: SW 161mi, 259km
Updated: Tue, 06-Dec-2022 4:54pm MST
Few Clouds
Few Clouds
 Wind from NNE
Wind: NNE 8 mph , 13 km/h
Temperature: 54°F , 12°C
Dew Point: 43°F , 6°C
Humidity: 67%
Barometer: 30.05 inHg , 1017.6 hPa
Clouds: Few Clouds
Visibility: 10 miles , 16 km
Cloud details: Few Clouds 5000 ft
2022/12/06 23:54 KHWD 062354Z 03007KT 10SM FEW050 12/06 A3005 RMK AO2 SLP186 T01220061 10144 20111 53002
KOAK - Oakland, California, USA
Distance from station: SW 164mi, 264km
Updated: Tue, 06-Dec-2022 4:53pm MST
Partly cloudy
Partly cloudy
 Wind from NE
Wind: NE 9 mph , 15 km/h
Temperature: 55°F , 13°C
Dew Point: 45°F , 7°C
Humidity: 67%
Barometer: 30.07 inHg , 1018.3 hPa
Clouds: Partly cloudy
Visibility: 10 miles , 16 km
Cloud details: Few Clouds 2000 ft
Partly cloudy 5000 ft
Partly cloudy 8000 ft
2022/12/06 23:53 KOAK 062353Z 05008KT 10SM FEW020 SCT050 SCT080 13/07 A3007 RMK AO2 SLP182 TCU DSNT N-NE T01330067 10144 20122 56003
 
KWMC - Winnemucca, Nevada, USA
Distance from station: NE 164mi, 264km
Updated: Tue, 06-Dec-2022 4:56pm MST
Clear
Clear
 Wind from NE
Wind: NE 6 mph , 9 km/h
Temperature: 37°F , 3°C
Wind Chill: 32°F , 0°C
Dew Point: 28°F , -2°C
Humidity: 70%
Barometer: 30.06 inHg , 1017.9 hPa
Clouds: Clear
Visibility: 10 miles , 16 km
2022/12/06 23:56 KWMC 062356Z AUTO 04005KT 10SM CLR 03/M02 A3006 RMK AO2 SLP194 T00331017 10050 21011 55002
KDVO - Novato/Gnoss Fld, California, USA
Distance from station: WSW 165mi, 265km
Updated: Tue, 06-Dec-2022 5:35pm MST
Few Clouds
Few Clouds
 Wind from calm
Wind: Calm
Temperature: 52°F , 11°C
Dew Point: 46°F , 8°C
Humidity: 82%
Barometer: 30.07 inHg , 1018.3 hPa
Clouds: Few Clouds
Visibility: 10 miles , 16 km
Cloud details: Few Clouds 3600 ft
2022/12/07 00:35 KDVO 070035Z AUTO 00000KT 10SM FEW036 11/08 A3007 RMK AO2
 
KO69 - Petaluma, California, USA
Distance from station: WSW 165mi, 265km
Updated: Tue, 06-Dec-2022 5:35pm MST
Few Clouds
Few Clouds
 Wind from calm
Wind: Calm
Temperature: 50°F , 10°C
Dew Point: 46°F , 8°C
Humidity: 88%
Barometer: 30.08 inHg , 1018.6 hPa
Clouds: Few Clouds
Visibility: 10 miles , 16 km
Cloud details: Few Clouds 4000 ft
2022/12/07 00:35 KO69 070035Z AUTO 00000KT 10SM FEW040 10/08 A3008 RMK A01
KRHV - San Jose/Reid, California, USA
Distance from station: SW 165mi, 265km
Updated: Tue, 06-Dec-2022 4:47pm MST
Mostly cloudy
Mostly cloudy
 Wind from E
Wind: E 5 mph , 7 km/h
Temperature: 54°F , 12°C
Dew Point: 43°F , 6°C
Humidity: 67%
Barometer: 30.05 inHg , 1017.6 hPa
Clouds: Mostly cloudy
Visibility: 10 miles , 16 km
Cloud details: Mostly cloudy 5000 ft
2022/12/06 23:47 KRHV 062347Z 09004KT 10SM BKN050 12/06 A3005
 
KSJC - San Jose, California, USA
Distance from station: SW 166mi, 267km
Updated: Tue, 06-Dec-2022 4:53pm MST
Mostly cloudy
Mostly cloudy
 Wind from NE
Wind: NE 5 mph , 7 km/h
Temperature: 54°F , 12°C
Dew Point: 43°F , 6°C
Humidity: 67%
Barometer: 30.05 inHg , 1017.6 hPa
Clouds: Mostly cloudy
Visibility: 10 miles , 16 km
Cloud details: Few Clouds 1400 ft
Partly cloudy 4200 ft
Mostly cloudy 7000 ft
2022/12/06 23:53 KSJC 062353Z 04004KT 10SM FEW014 SCT042 BKN070 12/06 A3005 RMK AO2 SLP174 60000 T01220056 10139 20106
KE16 - San Martin, California, USA
Distance from station: SW 169mi, 273km
Updated: Tue, 06-Dec-2022 5:35pm MST
Mostly cloudy
Mostly cloudy
 Wind from calm
Wind: Calm
Temperature: 54°F , 12°C
Dew Point: 41°F , 5°C
Humidity: 63%
Barometer: 30.07 inHg , 1018.3 hPa
Clouds: Mostly cloudy
Visibility: 10 miles , 16 km
Cloud details: Partly cloudy 5000 ft
Mostly cloudy 10000 ft
2022/12/07 00:35 KE16 070035Z AUTO 00000KT 10SM SCT050 BKN100 12/05 A3007 RMK AO2 PWINO PNO
 
KPAO - Palo Alto, California, USA
Distance from station: SW 169mi, 273km
Updated: Tue, 06-Dec-2022 4:47pm MST
Nearby showers, Mostly cloudy
Nearby showers, Mostly cloudy
 Wind from NNE
Wind: NNE 9 mph , 15 km/h
Temperature: 54°F , 12°C
Dew Point: 46°F , 8°C
Humidity: 77%
Barometer: 30.06 inHg , 1017.9 hPa
Summary: Nearby Showers
Clouds: Mostly cloudy
Visibility: 10 miles , 16 km
Cloud details: Mostly cloudy 3000 ft
2022/12/06 23:47 KPAO 062347Z 03008KT 10SM VCSH BKN030 12/08 A3006
KNUQ - Moffett Nas/Mtn, California, USA
Distance from station: SW 170mi, 273km
Updated: Tue, 06-Dec-2022 5:10pm MST
Overcast
Overcast
 Wind from N
Wind: N 8 mph , 13 km/h
Temperature: 54°F , 12°C
Dew Point: 45°F , 7°C
Humidity: 72%
Barometer: 30.05 inHg , 1017.6 hPa
Clouds: Overcast
Visibility: 10 miles , 16 km
Cloud details: Partly cloudy 5500 ft
Overcast 6500 ft
2022/12/07 00:10 KNUQ 070010Z AUTO 01007KT 10SM SCT055 OVC065 12/07 A3005 RMK AO2
 
KRDD - Redding, California, USA
Distance from station: NW 171mi, 275km
Updated: Tue, 06-Dec-2022 4:53pm MST
Clear
Clear
 Wind from N
Wind: N 5 mph , 7 km/h
Temperature: 57°F , 14°C
Dew Point: 36°F , 2°C
Humidity: 44%
Barometer: 30.06 inHg , 1017.9 hPa
Clouds: Clear
Visibility: 10 miles , 16 km
2022/12/06 23:53 KRDD 062353Z 01004KT 10SM CLR 14/02 A3006 RMK AO2 SLP178 T01440022 10150 20094 56008
KSTS - Santa Rosa, California, USA
Distance from station: WSW 171mi, 275km
Updated: Tue, 06-Dec-2022 4:53pm MST
Overcast
Overcast
 Wind from NNE
Wind: NNE 3 mph , 6 km/h
Temperature: 57°F , 14°C
Dew Point: 41°F , 5°C
Humidity: 55%
Barometer: 30.06 inHg , 1017.9 hPa
Clouds: Overcast
Visibility: 10 miles , 16 km
Cloud details: Few Clouds 3700 ft
Overcast 6000 ft
2022/12/06 23:53 KSTS 062353Z 03003KT 10SM FEW037 OVC060 14/05 A3006 RMK AO2 SLP174 T01390050 10150 20111 55002
 
KSQL - San Carlos Airpo, California, USA
Distance from station: SW 173mi, 278km
Updated: Tue, 06-Dec-2022 4:47pm MST
Mostly cloudy
Mostly cloudy
 Wind from NNE
Wind: NNE 7 mph , 11 km/h
Temperature: 54°F , 12°C
Dew Point: 46°F , 8°C
Humidity: 77%
Barometer: 30.07 inHg , 1018.3 hPa
Clouds: Mostly cloudy
Visibility: 10 miles , 16 km
Cloud details: Mostly cloudy 3000 ft
2022/12/06 23:47 KSQL 062347Z 02006KT 10SM BKN030 12/08 A3007
KCVH - Hollister Muni, California, USA
Distance from station: SSW 174mi, 280km
Updated: Tue, 06-Dec-2022 5:35pm MST
Mostly cloudy
Mostly cloudy
 Wind from calm
Wind: Calm
Temperature: 52°F , 11°C
Dew Point: 43°F , 6°C
Humidity: 72%
Barometer: 30.07 inHg , 1018.3 hPa
Clouds: Mostly cloudy
Visibility: 10 miles , 16 km
Cloud details: Mostly cloudy 8000 ft
Mostly cloudy 8500 ft
2022/12/07 00:35 KCVH 070035Z AUTO 00000KT 10SM BKN080 BKN085 11/06 A3007 RMK A01
 
KSFO - San Francisco, California, USA
Distance from station: SW 174mi, 280km
Updated: Tue, 06-Dec-2022 4:56pm MST
Partly cloudy
Partly cloudy
 Wind from NE
Wind: NE 8 mph , 13 km/h
Temperature: 55°F , 13°C
Dew Point: 46°F , 8°C
Humidity: 72%
Barometer: 30.05 inHg , 1017.6 hPa
Clouds: Partly cloudy
Visibility: 10 miles , 16 km
Cloud details: Few Clouds 2800 ft
Partly cloudy 5000 ft
Partly cloudy 6000 ft
2022/12/06 23:56 KSFO 062356Z 04007KT 10SM FEW028 SCT050 SCT060 13/08 A3005 RMK AO2 SLP176 T01280083 10133 20106 55000
KAAT - Alturas, California, USA
Distance from station: NNW 175mi, 281km
Updated: Tue, 06-Dec-2022 4:55pm MST
Clear
Clear
 Wind from calm
Wind: Calm
Temperature: 36°F , 2°C
Dew Point: 23°F , -5°C
Humidity: 60%
Barometer: 30.06 inHg , 1017.9 hPa
Clouds: Clear
Visibility: 10 miles , 16 km
2022/12/06 23:55 KAAT 062355Z AUTO 00000KT 10SM CLR 02/M05 A3006 RMK AO2 SLP197 T00221050 10028 21017 55000
 
KBAM - Battle Mtn (vor), Nevada, USA
Distance from station: NE 182mi, 294km
Updated: Tue, 06-Dec-2022 5:35pm MST
Clear
Clear
 Wind from NNW
Wind: NNW 3 mph , 6 km/h
Temperature: 36°F , 2°C
Dew Point: 32°F , 0°C
Humidity: 87%
Barometer: 30.07 inHg , 1018.3 hPa
Clouds: Clear
Visibility: 10 miles , 16 km
2022/12/07 00:35 KBAM 070035Z AUTO 33003KT 10SM CLR 02/00 A3007 RMK AO1
KHAF - Half Moon Bay, California, USA
Distance from station: SW 184mi, 296km
Updated: Tue, 06-Dec-2022 5:35pm MST
Clear
Clear
 Wind from varies
Wind: varies 3 mph , 6 km/h
Temperature: 54°F , 12°C
Dew Point: 48°F , 9°C
Humidity: 82%
Barometer: 30.06 inHg , 1017.9 hPa
Clouds: Clear
Visibility: 9 miles , 14 km
2022/12/07 00:35 KHAF 070035Z AUTO VRB03KT 9SM CLR 12/09 A3006 RMK AO2
 
KWVI - Watsonville, California, USA
Distance from station: SW 184mi, 296km
Updated: Tue, 06-Dec-2022 4:53pm MST
Clear
Clear
 Wind from calm
Wind: Calm
Temperature: 55°F , 13°C
Dew Point: 43°F , 6°C
Humidity: 63%
Barometer: 30.05 inHg , 1017.6 hPa
Clouds: Clear
Visibility: 10 miles , 16 km
2022/12/06 23:53 KWVI 062353Z AUTO 00000KT 10SM CLR 13/06 A3005 RMK AO2 SLP174 T01280061 10128 20100 55002
KUKI - Ukiah, California, USA
Distance from station: W 187mi, 300km
Updated: Tue, 06-Dec-2022 4:56pm MST
Clear
Clear
 Wind from W
Wind: W 6 mph , 9 km/h
Temperature: 52°F , 11°C
Dew Point: 43°F , 6°C
Humidity: 72%
Barometer: 30.06 inHg , 1017.9 hPa
Clouds: Clear
Visibility: 10 miles , 16 km
2022/12/06 23:56 KUKI 062356Z AUTO 28005KT 10SM CLR 11/06 A3006 RMK AO2 SLP178 6//// T01110056 10139 20089 55002
 
KHJO - Hanford, California, USA
Distance from station: S 188mi, 303km
Updated: Tue, 06-Dec-2022 4:53pm MST
Mostly cloudy
Mostly cloudy
 Wind from calm
Wind: Calm
Temperature: 59°F , 15°C
Dew Point: 46°F , 8°C
Humidity: 63%
Barometer: 30.03 inHg , 1016.9 hPa
Clouds: Mostly cloudy
Visibility: 10 miles , 16 km
Cloud details: Mostly cloudy 9500 ft
2022/12/06 23:53 KHJO 062353Z AUTO 00000KT 10SM BKN095 15/08 A3003 RMK AO2 LTG DSNT W SLP171 T01500078 10150 20089 55006
KNLC - Lemoore Nas/Reev, California, USA
Distance from station: S 188mi, 303km
Updated: Tue, 06-Dec-2022 5:30pm MST
Light thunderstorm, Rain, Mostly cloudy
Light thunderstorm, Rain, Mostly cloudy
 Wind from varies
Wind: varies 7 mph , 11 km/h
Temperature: 57°F , 14°C
Dew Point: 48°F , 9°C
Humidity: 72%
Barometer: 30.03 inHg , 1016.9 hPa
Summary: Light thunderstorm, Rain
Clouds: Mostly cloudy
Visibility: 10 miles , 16 km
Cloud details: Partly cloudy 5000 ft
Mostly cloudy 12000 ft
Mostly cloudy 22000 ft
2022/12/07 00:30 KNLC 070030Z COR VRB06KT 10SM -TSRA SCT050CB BKN120 BKN220 14/09 A3003 RMK AO2 RAB28 TSB28 FRQ LTGICCC OHD TS OHD MOV N P0000 T01390089
 
KVIS - Visalia Muni, California, USA
Distance from station: S 189mi, 304km
Updated: Tue, 06-Dec-2022 4:56pm MST
Clear
Clear
 Wind from W
Wind: W 5 mph , 7 km/h
Temperature: 59°F , 15°C
Dew Point: 48°F , 9°C
Humidity: 68%
Barometer: 30.03 inHg , 1016.9 hPa
Clouds: Clear
Visibility: 10 miles , 16 km
2022/12/06 23:56 KVIS 062356Z AUTO 26004KT 10SM CLR 15/09 A3003 RMK AO2 SLP179 T01500089 10161 20106 55006
KSNS - Salinas, California, USA
Distance from station: SSW 193mi, 311km
Updated: Tue, 06-Dec-2022 4:53pm MST
Clear
Clear
 Wind from SSE
Wind: SSE 8 mph , 13 km/h
Temperature: 55°F , 13°C
Dew Point: 45°F , 7°C
Humidity: 67%
Barometer: 30.04 inHg , 1017.3 hPa
Clouds: Clear
Visibility: 10 miles , 16 km
2022/12/06 23:53 KSNS 062353Z 15007KT 10SM CLR 13/07 A3004 RMK AO2 SLP179 T01280067 10133 20094 53002
 
K05U - Eureka, Nevada, USA
Distance from station: ENE 203mi, 326km
Updated: Tue, 06-Dec-2022 5:35pm MST

 Wind from NNW
Wind: NNW 6 mph , 9 km/h
Temperature: 30°F , -1°C
Wind Chill: 24°F , -4°C
Dew Point: 21°F , -6°C
Humidity: 69%
Barometer: 30.05 inHg , 1017.6 hPa
Visibility: 10 miles , 16 km
2022/12/07 00:35 K05U 070035Z AUTO 33005KT 10SM M01/M06 A3005 RMK A01
KP68 - Eureka, Nevada, USA
Distance from station: ENE 203mi, 326km
Updated: Tue, 06-Dec-2022 4:53pm MST

 Wind from N
Wind: N 7 mph , 11 km/h
Temperature: 37°F , 3°C
Wind Chill: 32°F , 0°C
Dew Point: 19°F , -7°C
Humidity: 48%
Barometer: 30.02 inHg , 1016.6 hPa
2022/12/06 23:53 KP68 062353Z AUTO 01006KT 03/M07 A3002 RMK AO1 SLP175 T00281067 10044 21017 53002
 
KMRY - Monterey, California, USA
Distance from station: SW 206mi, 331km
Updated: Tue, 06-Dec-2022 4:54pm MST
Mostly cloudy
Mostly cloudy
 Wind from NW
Wind: NW 3 mph , 6 km/h
Temperature: 54°F , 12°C
Dew Point: 43°F , 6°C
Humidity: 67%
Barometer: 30.04 inHg , 1017.3 hPa
Clouds: Mostly cloudy
Visibility: 10 miles , 16 km
Cloud details: Partly cloudy 3500 ft
Mostly cloudy 4800 ft
Mostly cloudy 6500 ft
2022/12/06 23:54 KMRY 062354Z 32003KT 10SM SCT035 BKN048 BKN065 12/06 A3004 RMK AO2 SLP186 60002 T01220061 10144 20100 53004
KO54 - Weaverville, California, USA
Distance from station: NW 207mi, 332km
Updated: Wed, 12-Aug-2020 12:15pm MDT
NOT Current
Clear
Clear
 Wind from S
Wind: S 3 mph , 6 km/h
Temperature: 77°F , 25°C
Dew Point: 41°F , 5°C
Humidity: 28%
Barometer: 30.01 inHg , 1016.3 hPa
Clouds: Clear
Visibility: 10 miles , 16 km
2020/08/12 18:15 KO54 121815Z AUTO 17003KT 10SM CLR 25/05 A3001 RMK AO1
 
KO86 - Trinity Center, California, USA
Distance from station: NW 207mi, 333km
Updated: Tue, 05-Apr-2022 1:30pm MDT
NOT Current
Clear
Clear
 Wind from calm
Wind: Calm
Temperature: 61°F , 16°C
Dew Point: 39°F , 4°C
Humidity: 45%
Barometer: 32.59 inHg , 1103.6 hPa
Clouds: Clear
Visibility: 10 miles , 16 km
2022/04/05 19:30 KO86 051930Z AUTO 00000KT 10SM CLR 16/04 A3259 RMK A01
KMHS - Mount Shasta, California, USA
Distance from station: NW 209mi, 336km
Updated: Tue, 06-Dec-2022 4:56pm MST
Overcast
Overcast
 Wind from calm
Wind: Calm
Temperature: 39°F , 4°C
Dew Point: 30°F , -1°C
Humidity: 70%
Barometer: 30.06 inHg , 1017.9 hPa
Clouds: Overcast
Visibility: 10 miles , 16 km
Cloud details: Overcast 2500 ft
2022/12/06 23:56 KMHS 062356Z AUTO 00000KT 10SM OVC025 04/M01 A3006 RMK AO2 SLP211 T00441006 10050 20011 55000
 
KPTV - Porterville, California, USA
Distance from station: S 212mi, 341km
Updated: Tue, 06-Dec-2022 4:56pm MST
Clear
Clear
 Wind from WSW
Wind: WSW 3 mph , 6 km/h
Temperature: 57°F , 14°C
Dew Point: 45°F , 7°C
Humidity: 63%
Barometer: 30.03 inHg , 1016.9 hPa
Clouds: Clear
Visibility: 10 miles , 16 km
2022/12/06 23:56 KPTV 062356Z AUTO 25003KT 10SM CLR 14/07 A3003 RMK AO2 SLP171 T01440072 10167 20111 55005
KLKV - Lakeview, Oregon, USA
Distance from station: N 219mi, 353km
Updated: Tue, 06-Dec-2022 4:53pm MST
Overcast
Overcast
 Wind from calm
Wind: Calm
Temperature: 30°F , -1°C
Dew Point: 25°F , -4°C
Humidity: 80%
Barometer: 30.07 inHg , 1018.3 hPa
Clouds: Overcast
Visibility: 10 miles , 16 km
Cloud details: Overcast 2700 ft
2022/12/06 23:53 KLKV 062353Z AUTO 00000KT 10SM OVC027 M01/M04 A3007 RMK AO2 SLP219 T10061044 10017 21006 53002 FZRANO
 
KSIY - Montague/Siskiyo, California, USA
Distance from station: NW 237mi, 382km
Updated: Tue, 06-Dec-2022 4:53pm MST
Clear
Clear
 Wind from N
Wind: N 7 mph , 11 km/h
Temperature: 43°F , 6°C
Wind Chill: 39°F , 4°C
Dew Point: 30°F , -1°C
Humidity: 61%
Barometer: 30.11 inHg , 1019.6 hPa
Clouds: Clear
Visibility: 10 miles , 16 km
2022/12/06 23:53 KSIY 062353Z AUTO 35006KT 10SM CLR 06/M01 A3011 RMK AO2 SLP215 T00611011 10072 20033 55000
KPRB - Paso Robles, California, USA
Distance from station: SSW 238mi, 383km
Updated: Tue, 06-Dec-2022 4:53pm MST
Rain, Mist, Overcast
Rain, Mist, Overcast
 Wind from NE
Wind: NE 7 mph , 11 km/h
Temperature: 46°F , 8°C
Wind Chill: 42°F , 6°C
Dew Point: 43°F , 6°C
Humidity: 87%
Barometer: 30.03 inHg , 1016.9 hPa
Summary: Rain, Mist
Clouds: Overcast
Visibility: 5 miles , 8 km
Cloud details: Overcast 4100 ft
2022/12/06 23:53 KPRB 062353Z AUTO 05006KT 5SM RA BR OVC041 08/06 A3003 RMK AO2 WSHFT 2253 SLP171 P0007 60015 T00830061 10111 20078 53001
 
KLMT - Klamath Falls, Oregon, USA
Distance from station: NNW 239mi, 385km
Updated: Tue, 06-Dec-2022 4:53pm MST
Few Clouds
Few Clouds
 Wind from NW
Wind: NW 3 mph , 6 km/h
Temperature: 34°F , 1°C
Dew Point: 25°F , -4°C
Humidity: 70%
Barometer: 30.08 inHg , 1018.6 hPa
Clouds: Few Clouds
Visibility: 10 miles , 16 km
Cloud details: Few Clouds 3500 ft
2022/12/06 23:53 KLMT 062353Z 31003KT 10SM FEW035 01/M04 A3008 RMK AO2 SLP203 T00061039 10028 21006 53003
KEKO - Elko, Nevada, USA
Distance from station: ENE 242mi, 390km
Updated: Tue, 06-Dec-2022 4:56pm MST
Overcast
Overcast
 Wind from calm
Wind: Calm
Temperature: 27°F , -3°C
Dew Point: 25°F , -4°C
Humidity: 93%
Barometer: 30.07 inHg , 1018.3 hPa
Clouds: Overcast
Visibility: 10 miles , 16 km
Cloud details: Overcast 400 ft
2022/12/06 23:56 KEKO 062356Z AUTO 00000KT 10SM OVC004 M03/M04 A3007 RMK AO2 SNB29E38 SLP219 P0000 60000 T10331044 11033 21044 53001
 
KBFL - Bakersfield, California, USA
Distance from station: S 252mi, 405km
Updated: Tue, 06-Dec-2022 4:54pm MST
Clear
Clear
 Wind from N
Wind: N 7 mph , 11 km/h
Temperature: 61°F , 16°C
Dew Point: 37°F , 3°C
Humidity: 42%
Barometer: 30.00 inHg , 1015.9 hPa
Clouds: Clear
Visibility: 10 miles , 16 km
2022/12/06 23:54 KBFL 062354Z 36006KT 10SM CLR 16/03 A3000 RMK AO2 SLP157 T01610028 10167 20111 56006
KFOT - Fortuna, California, USA
Distance from station: WNW 256mi, 413km
Updated: Tue, 06-Dec-2022 5:35pm MST
Clear
Clear
 Wind from W
Wind: W 8 mph , 13 km/h
Temperature: 45°F , 7°C
Wind Chill: 41°F , 5°C
Dew Point: 41°F , 5°C
Humidity: 87%
Barometer: 30.12 inHg , 1020 hPa
Clouds: Clear
Visibility: 10 miles , 16 km
2022/12/07 00:35 KFOT 070035Z AUTO 28007KT 10SM CLR 07/05 A3012 RMK AO1
 
KNID - China Lake (naf), California, USA
Distance from station: SSE 259mi, 417km
Updated: Tue, 06-Dec-2022 4:56pm MST
Partly cloudy
Partly cloudy
 Wind from ESE
Wind: ESE 5 mph , 7 km/h
Temperature: 57°F , 14°C
Dew Point: 28°F , -2°C
Humidity: 33%
Barometer: 29.96 inHg , 1014.6 hPa
Clouds: Partly cloudy
Visibility: 10 miles , 16 km
Cloud details: Few Clouds 6000 ft
Few Clouds 17000 ft
Partly cloudy 25000 ft
2022/12/06 23:56 KNID 062356Z 11004KT 10SM FEW060 FEW170 SCT250 14/M02 A2996 RMK AO2 SLP151 T01391022 10144 20083 55006 $
KDRA - Desert R/Mercury, Nevada, USA
Distance from station: SE 262mi, 421km
Updated: Tue, 06-Dec-2022 4:53pm MST
Clear
Clear
 Wind from WSW
Wind: WSW 6 mph , 9 km/h
Temperature: 52°F , 11°C
Dew Point: 30°F , -1°C
Humidity: 44%
Barometer: 29.96 inHg , 1014.6 hPa
Clouds: Clear
Visibility: 10 miles , 16 km
2022/12/06 23:53 KDRA 062353Z AUTO 25005KT 10SM CLR 11/M01 A2996 RMK AO2 SLP138 T01061011 10133 20094 53001
 
KELY - Ely, Nevada, USA
Distance from station: E 262mi, 421km
Updated: Tue, 06-Dec-2022 4:53pm MST
Clear
Clear
 Wind from calm
Wind: Calm
Temperature: 28°F , -2°C
Dew Point: 23°F , -5°C
Humidity: 80%
Barometer: 30.02 inHg , 1016.6 hPa
Clouds: Clear
Visibility: 10 miles , 16 km
2022/12/06 23:53 KELY 062353Z AUTO 00000KT 10SM CLR M02/M05 A3002 RMK AO2 SLP199 T10171050 10011 21067 53004
KREO - Rome, Oregon, USA
Distance from station: NNE 263mi, 424km
Updated: Tue, 06-Dec-2022 4:52pm MST

 Wind from W
Wind: W 5 mph , 7 km/h
Temperature: 37°F , 3°C
Wind Chill: 33°F , 1°C
Dew Point: 21°F , -6°C
Humidity: 52%
Barometer: 30.06 inHg , 1017.9 hPa
2022/12/06 23:52 KREO 062352Z AUTO 28004KT 03/M06 A3006 RMK AO1 SLP201 T00281056 10039 20006 53004
 
KACV - Arcata/Eureka, California, USA
Distance from station: WNW 268mi, 431km
Updated: Tue, 06-Dec-2022 4:53pm MST
Clear
Clear
 Wind from NNW
Wind: NNW 8 mph , 13 km/h
Temperature: 52°F , 11°C
Dew Point: 41°F , 5°C
Humidity: 67%
Barometer: 30.11 inHg , 1019.6 hPa
Clouds: Clear
Visibility: 10 miles , 16 km
2022/12/06 23:53 KACV 062353Z AUTO 33007KT 10SM CLR 11/05 A3011 RMK AO2 SLP202 T01110050 10117 20078 55001
KSBP - San Luis Obispo, California, USA
Distance from station: S 268mi, 431km
Updated: Tue, 06-Dec-2022 5:21pm MST
Light rain, Overcast
Light rain, Overcast
 Wind from NW
Wind: NW 9 mph , 15 km/h
Temperature: 52°F , 11°C
Dew Point: 46°F , 8°C
Humidity: 82%
Barometer: 30.06 inHg , 1017.9 hPa
Summary: Light rain
Clouds: Overcast
Visibility: 10 miles , 16 km
Cloud details: Few Clouds 1500 ft
Overcast 5500 ft
2022/12/07 00:21 KSBP 070021Z 32008KT 10SM -RA FEW015 OVC055 11/08 A3006 RMK AO2 RAB03 P0001 T01060078
 
KINS - Indian Springs, Nevada, USA
Distance from station: SE 279mi, 449km
Updated: Tue, 06-Dec-2022 4:55pm MST
Partly cloudy
Partly cloudy
 Wind from ESE
Wind: ESE 9 mph , 15 km/h
Temperature: 52°F , 11°C
Dew Point: 30°F , -1°C
Humidity: 44%
Barometer: 29.97 inHg , 1014.9 hPa
Clouds: Partly cloudy
Visibility: 10 miles , 16 km
Cloud details: Partly cloudy 7000 ft
2022/12/06 23:55 KINS 062355Z AUTO 12008KT 10SM SCT070 11/M01 A2997 RMK AO2 SLP142 T01101008 10121 20083 53002 $
KTSP - Tehachapi, California, USA
Distance from station: SSE 279mi, 449km
Updated: Tue, 06-Dec-2022 5:35pm MST
Clear
Clear
 Wind from NW
Wind: NW 9 mph , 15 km/h
Temperature: 41°F , 5°C
Wind Chill: 35°F , 2°C
Dew Point: 36°F , 2°C
Humidity: 81%
Barometer: 30.01 inHg , 1016.3 hPa
Clouds: Clear
Visibility: 9 miles , 14 km
2022/12/07 00:35 KTSP 070035Z AUTO 32008KT 9SM CLR 05/02 A3001 RMK AO2
 
KMFR - Medford, Oregon, USA
Distance from station: NW 284mi, 457km
Updated: Tue, 06-Dec-2022 4:53pm MST
Clear
Clear
 Wind from W
Wind: W 3 mph , 6 km/h
Temperature: 46°F , 8°C
Dew Point: 34°F , 1°C
Humidity: 62%
Barometer: 30.12 inHg , 1020 hPa
Clouds: Clear
Visibility: 10 miles , 16 km
2022/12/06 23:53 KMFR 062353Z 28003KT 10SM CLR 08/01 A3012 RMK AO2 SLP205 T00830011 10089 20039 55003
KMHV - Mojave, California, USA
Distance from station: SSE 288mi, 463km
Updated: Tue, 06-Dec-2022 5:40pm MST
Clear
Clear
 Wind from SW
Wind: SW 10 mph , 17 km/h, Gust: 16 mph , 26 km/h
Temperature: 50°F , 10°C
Wind Chill: 46°F , 8°C
Dew Point: 32°F , 0°C
Humidity: 50%
Barometer: 29.99 inHg , 1015.6 hPa
Clouds: Clear
Visibility: 10 miles , 16 km
2022/12/07 00:40 KMHV 070040Z AUTO 22009G14KT 10SM CLR 10/M00 A2999 RMK A01
 
KSMX - Santa Maria, California, USA
Distance from station: S 289mi, 465km
Updated: Tue, 06-Dec-2022 4:51pm MST
Mostly cloudy
Mostly cloudy
 Wind from WSW
Wind: WSW 7 mph , 11 km/h
Temperature: 55°F , 13°C
Dew Point: 46°F , 8°C
Humidity: 72%
Barometer: 30.03 inHg , 1016.9 hPa
Clouds: Mostly cloudy
Visibility: 10 miles , 16 km
Cloud details: Partly cloudy 3200 ft
Mostly cloudy 6500 ft
2022/12/06 23:51 KSMX 062351Z 24006KT 10SM SCT032 BKN065 13/08 A3003 RMK AO2 SLP173 T01280083 10161 20117 53001
K9L2 - Edwards N-Aux, California, USA
Distance from station: SSE 299mi, 482km
Updated: Tue, 06-Dec-2022 4:55pm MST
Clear
Clear
 Wind from SSW
Wind: SSW 9 mph , 15 km/h
Temperature: 55°F , 13°C
Dew Point: 30°F , -1°C
Humidity: 38%
Barometer: 29.98 inHg , 1015.2 hPa
Clouds: Clear
Visibility: 8 miles , 13 km
2022/12/06 23:55 K9L2 062355Z AUTO 20008KT 8SM CLR 13/M01 A2998 RMK AO2 SLP151 T01251011 10136 20100 55002
Honor Flight NV - Honoring all of our Veterans CoCoRaHS (Community Collaborative Rain, Hail and Snow Network) Station Number: NV-DG-2 Live Lightning Map - USA Reno Skywarn Spotter ID: DO21 AlertID Southwestern Weather Network Carson Valley Community Food Closet - providing for the needs of our community



(Click on the Flag Counter logo below for details in new browser tab)
Flag Counter